Struthers, Ohio
Current Conditions -  °F | °C
As of 2:51 AM on Tuesday 21 Oct 2014 (Local Time) from KYNG Reporting Station
Light Rain Light Rain  
Wind Chill: 50°   Ceiling: 300
Heat Index: 50°   Visibility: 1.5mi
Dew Point: 49°   Wind: 8mph
Humidity: 96%   Direction: 230°SW
Pressure: 29.82"   Gusts: NA
Location:  41.05°N, 80.59°W
Report Text: KYNG 210651Z 23007KT 1 1/2SM -RA BR OVC003 10/09 A2982 RMK AO2 SLP101 P0003 T01000094
Loading
Personal Weather Stations






























Interactive Weather Map
Tropical Storm Tracking
New forecast layout! Learn more

10-Day Weather Forecast

Advertisements
Track Severe Weather on mobile